Time;durP1;ratioP1;P1;durP2;ratioP2;P2;SDS_P1;SDS_P2;PMS_P1;PMS_P2;Temp;Humidity;BMP_temperature;BMP_pressure;BME280_temperature;BME280_humidity;BME280_pressure;Samples;Min_cycle;Max_cycle;Signal;HPM_P1;HPM_P2
2022/12/03 00:00:36;;;;;;;21.90;14.30;;;5.10;93.70;;;;;;5093689;28;20454;-72
2022/12/03 00:03:03;;;;;;;17.27;13.23;;;5.10;93.60;;;;;;5093106;28;20994;-72
2022/12/03 00:05:30;;;;;;;18.90;13.17;;;5.10;93.60;;;;;;5093586;28;20447;-72
2022/12/03 00:07:57;;;;;;;17.83;13.20;;;5.20;93.70;;;;;;5093535;28;20430;-72
2022/12/03 00:10:23;;;;;;;15.80;12.53;;;5.20;93.60;;;;;;5093314;28;20479;-72
2022/12/03 00:12:51;;;;;;;15.93;12.90;;;5.20;93.50;;;;;;5093385;28;20466;-72
2022/12/03 00:15:18;;;;;;;15.47;12.70;;;5.20;93.60;;;;;;5093551;28;20447;-72
2022/12/03 00:17:45;;;;;;;17.27;13.27;;;5.20;93.70;;;;;;5092997;28;20446;-71
2022/12/03 00:20:18;;;;;;;15.40;12.03;;;5.10;93.80;;;;;;5092818;28;20819;-71
2022/12/03 00:22:45;;;;;;;16.40;12.17;;;5.20;93.80;;;;;;5093151;28;20466;-71
2022/12/03 00:25:11;;;;;;;17.10;13.10;;;5.20;93.70;;;;;;5094070;28;20960;-72
2022/12/03 00:27:38;;;;;;;17.80;12.83;;;5.20;93.70;;;;;;5097023;28;20430;-72
2022/12/03 00:30:08;;;;;;;17.00;13.47;;;5.20;93.70;;;;;;5097071;28;20485;-72
2022/12/03 00:32:35;;;;;;;16.50;12.67;;;5.20;93.70;;;;;;5097044;28;20478;-72
2022/12/03 00:35:02;;;;;;;16.10;12.40;;;5.20;93.60;;;;;;5096559;28;20961;-72
2022/12/03 00:37:29;;;;;;;17.13;12.17;;;5.20;93.50;;;;;;5096951;28;20435;-72
2022/12/03 00:39:55;;;;;;;14.63;12.10;;;5.10;93.50;;;;;;5096710;28;20454;-72
2022/12/03 00:42:22;;;;;;;14.37;10.87;;;5.10;93.50;;;;;;5097314;28;20472;-72
2022/12/03 00:44:49;;;;;;;16.37;12.70;;;5.10;93.40;;;;;;5096964;28;20484;-71
2022/12/03 00:47:17;;;;;;;15.73;12.10;;;5.10;93.30;;;;;;5096632;28;20450;-71
2022/12/03 00:49:44;;;;;;;15.63;11.40;;;5.10;93.20;;;;;;5096879;28;20476;-71
2022/12/03 00:52:10;;;;;;;14.33;10.87;;;5.10;93.10;;;;;;5096146;28;20948;-71
2022/12/03 00:54:37;;;;;;;14.40;11.83;;;5.00;93.00;;;;;;5096739;28;20450;-71
2022/12/03 00:57:04;;;;;;;15.60;13.07;;;5.10;93.10;;;;;;5096417;28;20444;-72
2022/12/03 00:59:30;;;;;;;16.47;11.43;;;5.10;93.20;;;;;;5096580;28;20454;-72
2022/12/03 01:01:57;;;;;;;17.30;12.67;;;5.00;93.10;;;;;;5095965;28;20445;-72
2022/12/03 01:04:25;;;;;;;16.10;11.33;;;5.00;93.00;;;;;;5096325;28;20457;-72
2022/12/03 01:06:52;;;;;;;14.57;12.30;;;5.00;93.00;;;;;;5096541;28;20430;-72
2022/12/03 01:09:19;;;;;;;18.70;12.80;;;5.00;92.90;;;;;;5096169;28;20450;-72
2022/12/03 01:11:46;;;;;;;20.60;14.63;;;5.00;92.90;;;;;;5096270;28;20446;-72
2022/12/03 01:14:14;;;;;;;22.53;15.07;;;5.00;92.90;;;;;;5096151;28;20474;-72
2022/12/03 01:16:42;;;;;;;17.63;13.30;;;5.00;92.90;;;;;;5096224;28;20431;-72
2022/12/03 01:19:14;;;;;;;17.07;13.23;;;5.00;93.00;;;;;;5096052;28;20453;-72
2022/12/03 01:21:43;;;;;;;15.27;12.10;;;5.00;93.20;;;;;;5096052;28;20438;-72
2022/12/03 01:24:10;;;;;;;15.77;12.27;;;5.00;93.40;;;;;;5096094;28;20466;-72
2022/12/03 01:26:37;;;;;;;14.90;12.77;;;5.00;93.50;;;;;;5096042;28;20451;-72
2022/12/03 01:29:04;;;;;;;16.67;11.83;;;5.00;93.50;;;;;;5095944;28;20453;-72
2022/12/03 01:34:15;;;;;;;15.27;11.33;;;5.00;93.60;;;;;;5095871;28;20466;-71
2022/12/03 01:36:43;;;;;;;18.63;12.93;;;5.00;93.80;;;;;;5095573;28;20449;-71
2022/12/03 01:39:09;;;;;;;17.37;12.17;;;5.00;93.80;;;;;;5095373;28;20464;-71
2022/12/03 01:41:37;;;;;;;21.30;15.80;;;5.00;93.80;;;;;;5095168;28;20449;-71
2022/12/03 01:44:07;;;;;;;19.37;14.50;;;5.00;93.80;;;;;;5095136;28;20831;-71
2022/12/03 01:46:38;;;;;;;15.13;12.33;;;5.00;93.80;;;;;;5095497;28;20461;-71
2022/12/03 01:49:06;;;;;;;16.77;13.97;;;5.00;93.80;;;;;;5095521;28;20430;-71
2022/12/03 01:51:32;;;;;;;16.20;12.63;;;5.00;93.80;;;;;;5095375;28;20826;-71
2022/12/03 01:54:01;;;;;;;16.50;12.17;;;5.00;93.90;;;;;;5095237;28;20472;-71
2022/12/03 01:56:28;;;;;;;16.57;12.40;;;5.00;94.00;;;;;;5095251;28;20833;-70
2022/12/03 01:58:55;;;;;;;16.30;11.53;;;5.00;94.10;;;;;;5095142;28;20449;-70
2022/12/03 02:01:21;;;;;;;16.93;13.20;;;5.00;94.10;;;;;;5095163;28;20446;-70
2022/12/03 02:03:48;;;;;;;16.20;13.50;;;5.00;94.10;;;;;;5094842;28;21093;-70
2022/12/03 02:06:18;;;;;;;16.60;13.63;;;5.10;94.30;;;;;;5095230;28;20448;-70
2022/12/03 02:08:46;;;;;;;16.37;11.67;;;5.10;94.30;;;;;;5095194;28;20446;-70
2022/12/03 02:11:21;;;;;;;20.73;13.30;;;5.10;94.20;;;;;;5094990;28;20482;-71
2022/12/03 02:13:50;;;;;;;16.60;12.63;;;5.10;94.20;;;;;;5094655;28;20480;-71
2022/12/03 02:16:17;;;;;;;16.80;12.83;;;5.00;94.20;;;;;;5094568;28;20937;-71
2022/12/03 02:18:44;;;;;;;15.07;12.10;;;5.00;94.20;;;;;;5094940;28;20511;-71
2022/12/03 02:21:17;;;;;;;19.30;12.83;;;5.00;94.40;;;;;;5094813;28;20442;-71
2022/12/03 02:23:52;;;;;;;17.20;14.10;;;5.10;94.30;;;;;;5094324;28;20471;-71
2022/12/03 02:26:21;;;;;;;17.10;12.50;;;5.10;94.30;;;;;;5094634;28;20445;-71
2022/12/03 02:28:47;;;;;;;19.03;13.93;;;5.10;94.20;;;;;;5094578;28;20852;-71
2022/12/03 02:31:14;;;;;;;17.00;13.20;;;5.10;94.20;;;;;;5094127;28;20474;-71
2022/12/03 02:33:41;;;;;;;16.57;13.27;;;5.10;94.20;;;;;;5094155;28;20462;-71
2022/12/03 02:36:09;;;;;;;17.47;13.30;;;5.10;94.30;;;;;;5094478;28;20452;-71
2022/12/03 02:38:36;;;;;;;16.60;13.30;;;5.20;94.30;;;;;;5094135;28;20462;-71
2022/12/03 02:41:06;;;;;;;17.30;12.27;;;5.20;94.40;;;;;;5094056;28;20968;-71
2022/12/03 02:43:34;;;;;;;16.70;12.43;;;5.20;94.40;;;;;;5094201;28;20466;-71
2022/12/03 02:46:03;;;;;;;18.63;13.50;;;5.20;94.40;;;;;;5094314;28;20424;-71
2022/12/03 02:48:33;;;;;;;13.53;10.80;;;5.20;94.30;;;;;;5093947;28;20454;-71
2022/12/03 02:51:04;;;;;;;19.30;13.27;;;5.20;94.30;;;;;;5094252;28;20468;-71
2022/12/03 02:53:37;;;;;;;19.13;13.40;;;5.20;94.30;;;;;;5094370;28;20470;-71
2022/12/03 02:56:05;;;;;;;16.20;13.10;;;5.20;94.20;;;;;;5094235;28;20429;-71
2022/12/03 02:58:34;;;;;;;14.70;11.87;;;5.20;94.20;;;;;;5094136;28;20473;-71
2022/12/03 03:01:02;;;;;;;16.40;11.67;;;5.20;94.20;;;;;;5094065;28;20453;-70
2022/12/03 03:03:30;;;;;;;17.33;13.00;;;5.20;94.00;;;;;;5094026;28;20468;-70
2022/12/03 03:05:58;;;;;;;17.87;12.77;;;5.20;93.90;;;;;;5093986;28;20447;-70
2022/12/03 03:08:26;;;;;;;15.03;13.10;;;5.20;93.90;;;;;;5093911;28;20445;-71
2022/12/03 03:10:54;;;;;;;15.60;12.93;;;5.20;94.00;;;;;;5093915;28;20486;-71
2022/12/03 03:13:21;;;;;;;17.90;13.73;;;5.20;94.00;;;;;;5093830;28;20465;-71
2022/12/03 03:15:50;;;;;;;16.73;12.30;;;5.20;94.10;;;;;;5093850;28;20450;-71
2022/12/03 03:18:18;;;;;;;16.47;13.70;;;5.20;94.20;;;;;;5094078;28;20484;-71
2022/12/03 03:20:45;;;;;;;16.17;12.87;;;5.20;94.20;;;;;;5093915;28;20449;-71
2022/12/03 03:23:15;;;;;;;15.70;12.90;;;5.20;94.20;;;;;;5094159;28;20473;-71
2022/12/03 03:25:45;;;;;;;15.17;12.23;;;5.20;94.50;;;;;;5093837;28;20434;-71
2022/12/03 03:28:13;;;;;;;18.73;13.57;;;5.20;94.10;;;;;;5093818;28;20443;-71
2022/12/03 03:30:42;;;;;;;16.10;12.77;;;5.20;94.10;;;;;;5093611;28;20478;-71
2022/12/03 03:33:10;;;;;;;17.53;12.57;;;5.20;94.10;;;;;;5093500;28;20465;-71
2022/12/03 03:35:38;;;;;;;16.10;13.13;;;5.20;94.00;;;;;;5093273;28;20452;-71
2022/12/03 03:38:05;;;;;;;16.10;12.20;;;5.20;94.00;;;;;;5093452;28;20468;-71
2022/12/03 03:40:32;;;;;;;15.80;11.90;;;5.20;94.00;;;;;;5094018;28;20458;-71
2022/12/03 03:43:00;;;;;;;16.23;12.67;;;5.20;94.00;;;;;;5093534;28;20469;-71
2022/12/03 03:45:27;;;;;;;17.00;13.87;;;5.20;94.00;;;;;;5093584;28;20449;-71
2022/12/03 03:47:56;;;;;;;17.30;13.17;;;5.20;94.10;;;;;;5093464;28;20445;-71
2022/12/03 03:50:24;;;;;;;18.57;13.23;;;5.30;94.10;;;;;;5093519;28;20483;-71
2022/12/03 03:52:51;;;;;;;17.33;12.43;;;5.30;94.10;;;;;;5093907;28;20462;-71
2022/12/03 03:55:19;;;;;;;17.93;12.87;;;5.30;94.10;;;;;;5093449;28;20445;-71
2022/12/03 03:57:47;;;;;;;17.73;12.80;;;5.30;94.10;;;;;;5093508;28;20454;-71
2022/12/03 04:00:14;;;;;;;15.70;12.57;;;5.20;94.00;;;;;;5094525;28;20450;-71
2022/12/03 04:02:41;;;;;;;20.07;14.13;;;5.30;94.00;;;;;;5097608;28;20828;-71
2022/12/03 04:05:15;;;;;;;17.40;12.33;;;5.20;94.00;;;;;;5097437;28;20451;-71
2022/12/03 04:07:43;;;;;;;18.70;12.80;;;5.20;94.10;;;;;;5097116;28;20909;-71
2022/12/03 04:12:54;;;;;;;18.60;13.43;;;5.20;94.20;;;;;;5097239;28;20451;-71
2022/12/03 04:13:04;;;;;;;19.27;14.13;;;5.30;94.20;;;;;;5096939;28;20541;-71
2022/12/03 04:15:31;;;;;;;16.13;12.67;;;5.30;94.20;;;;;;5097390;28;20513;-71
2022/12/03 04:20:43;;;;;;;16.67;13.30;;;5.20;94.10;;;;;;5097352;28;20764;-71
2022/12/03 04:23:10;;;;;;;18.10;13.97;;;5.30;94.10;;;;;;5097025;28;20995;-71
2022/12/03 04:36:30;;;;;;;19.07;13.23;;;5.30;94.20;;;;;;5073922;28;20433;-71
2022/12/03 04:38:58;;;;;;;21.93;13.37;;;5.30;94.20;;;;;;5097029;28;20456;-71
2022/12/03 04:41:25;;;;;;;20.50;13.50;;;5.30;94.10;;;;;;5098446;28;20442;-71
2022/12/03 04:46:35;;;;;;;17.77;12.30;;;5.20;94.10;;;;;;5102943;28;20451;-71
2022/12/03 04:49:02;;;;;;;19.07;14.03;;;5.20;94.20;;;;;;5105207;28;20454;-71
2022/12/03 04:51:29;;;;;;;18.77;13.30;;;5.20;94.30;;;;;;5105987;28;20473;-72
2022/12/03 04:53:58;;;;;;;21.97;13.90;;;5.20;94.40;;;;;;5108225;28;20467;-71
2022/12/03 04:56:24;;;;;;;18.50;14.17;;;5.20;94.30;;;;;;5111827;28;20434;-71
2022/12/03 04:58:51;;;;;;;16.60;12.37;;;5.30;94.30;;;;;;5114927;28;20452;-71
2022/12/03 05:01:18;;;;;;;16.90;12.87;;;5.20;94.30;;;;;;5112056;28;20439;-71
2022/12/03 05:03:45;;;;;;;19.80;13.20;;;5.20;94.30;;;;;;5106409;28;20465;-71
2022/12/03 05:06:11;;;;;;;19.97;12.40;;;5.30;94.40;;;;;;5101084;28;20440;-71
2022/12/03 05:08:38;;;;;;;17.93;12.10;;;5.30;94.20;;;;;;5096863;28;20454;-71
2022/12/03 05:11:06;;;;;;;20.70;14.57;;;5.20;94.20;;;;;;5095926;28;20485;-71
2022/12/03 05:13:33;;;;;;;20.53;13.97;;;5.20;94.20;;;;;;5096372;28;20466;-71
2022/12/03 05:16:00;;;;;;;19.97;13.90;;;5.20;94.20;;;;;;5096591;28;20433;-71
2022/12/03 05:18:27;;;;;;;20.30;14.13;;;5.30;94.20;;;;;;5096280;28;20481;-71
2022/12/03 05:20:53;;;;;;;21.47;14.27;;;5.20;94.00;;;;;;5096402;28;20453;-72
2022/12/03 05:23:21;;;;;;;20.00;13.97;;;5.20;94.00;;;;;;5096111;28;20489;-72
2022/12/03 05:25:47;;;;;;;21.33;14.13;;;5.20;94.10;;;;;;5095862;28;20941;-72
2022/12/03 05:28:15;;;;;;;21.13;14.10;;;5.20;94.10;;;;;;5094601;28;20445;-72
2022/12/03 05:30:42;;;;;;;22.10;13.90;;;5.20;94.10;;;;;;5096051;28;20473;-72
2022/12/03 05:33:09;;;;;;;19.90;13.90;;;5.20;94.10;;;;;;5095931;28;20459;-72
2022/12/03 05:35:36;;;;;;;21.43;13.00;;;5.10;94.10;;;;;;5095578;28;20453;-72
2022/12/03 05:38:02;;;;;;;24.40;14.10;;;5.10;94.10;;;;;;5095727;28;20459;-72
2022/12/03 05:40:29;;;;;;;17.53;12.87;;;5.10;94.00;;;;;;5095996;28;20437;-72
2022/12/03 05:43:00;;;;;;;23.97;14.30;;;5.10;94.00;;;;;;5095537;28;21008;-72
2022/12/03 05:45:29;;;;;;;19.00;13.10;;;5.10;94.10;;;;;;5095888;28;20418;-71
2022/12/03 05:47:57;;;;;;;20.07;12.87;;;5.10;94.10;;;;;;5095804;28;20446;-71
2022/12/03 05:50:26;;;;;;;21.90;12.37;;;5.10;94.10;;;;;;5096253;28;20440;-71
2022/12/03 05:52:52;;;;;;;22.13;13.70;;;5.10;94.10;;;;;;5095763;28;20492;-71
2022/12/03 05:55:20;;;;;;;21.57;12.77;;;5.20;94.40;;;;;;5095599;28;20462;-71
2022/12/03 05:57:47;;;;;;;21.07;12.70;;;5.20;94.00;;;;;;5095708;28;20441;-71
2022/12/03 06:00:16;;;;;;;21.53;13.63;;;5.20;93.70;;;;;;5095682;28;20450;-72
2022/12/03 06:02:44;;;;;;;22.63;12.93;;;5.10;93.70;;;;;;5095717;28;20469;-72
2022/12/03 06:05:13;;;;;;;22.13;13.33;;;5.10;93.80;;;;;;5095775;28;20438;-72
2022/12/03 06:07:40;;;;;;;21.20;12.80;;;5.10;93.80;;;;;;5095485;28;20441;-71
2022/12/03 06:10:09;;;;;;;18.93;12.80;;;5.10;93.80;;;;;;5094903;28;20444;-72
2022/12/03 06:12:36;;;;;;;17.10;12.00;;;5.10;93.80;;;;;;5095135;28;21008;-71
2022/12/03 06:15:03;;;;;;;20.03;12.83;;;5.10;93.80;;;;;;5094901;28;20502;-71
2022/12/03 06:17:30;;;;;;;19.10;12.10;;;5.10;93.70;;;;;;5095227;28;20453;-71
2022/12/03 06:19:58;;;;;;;19.33;12.60;;;5.10;93.70;;;;;;5095039;28;20953;-72
2022/12/03 06:22:25;;;;;;;19.53;12.20;;;5.10;93.60;;;;;;5094909;28;20460;-72
2022/12/03 06:24:52;;;;;;;23.67;13.10;;;5.10;93.50;;;;;;5095247;28;20453;-72
2022/12/03 06:27:18;;;;;;;21.20;13.73;;;5.00;93.40;;;;;;5095167;28;20464;-71
2022/12/03 06:29:45;;;;;;;20.37;13.03;;;5.10;93.50;;;;;;5095374;28;20453;-71
2022/12/03 06:32:12;;;;;;;18.53;12.23;;;5.00;93.50;;;;;;5094816;28;21013;-71
2022/12/03 06:34:39;;;;;;;20.63;12.63;;;5.00;93.60;;;;;;5095939;28;20473;-71
2022/12/03 06:37:07;;;;;;;18.90;12.97;;;5.00;93.70;;;;;;5096547;28;20442;-71
2022/12/03 06:39:34;;;;;;;19.70;11.77;;;5.00;93.80;;;;;;5095113;28;20469;-71
2022/12/03 06:42:00;;;;;;;19.53;14.07;;;5.00;93.90;;;;;;5095550;28;20442;-71
2022/12/03 06:44:27;;;;;;;19.70;13.10;;;5.00;93.80;;;;;;5094608;28;20453;-72
2022/12/03 06:46:54;;;;;;;26.93;13.23;;;5.00;93.70;;;;;;5094724;28;20445;-72
2022/12/03 06:49:21;;;;;;;22.40;14.00;;;5.00;93.70;;;;;;5095383;28;20425;-72
2022/12/03 06:51:48;;;;;;;24.67;12.03;;;5.00;93.60;;;;;;5094757;28;20883;-72
2022/12/03 06:54:16;;;;;;;21.53;12.80;;;5.00;93.60;;;;;;5094651;28;20466;-72
2022/12/03 06:56:43;;;;;;;19.60;11.70;;;5.00;93.60;;;;;;5094634;28;20433;-72
2022/12/03 06:59:09;;;;;;;21.47;12.90;;;5.00;93.50;;;;;;5094858;28;20451;-72
2022/12/03 07:01:36;;;;;;;23.20;13.83;;;5.00;93.60;;;;;;5094890;28;20442;-72
2022/12/03 07:04:03;;;;;;;22.67;13.23;;;5.00;93.50;;;;;;5094368;28;20877;-72
2022/12/03 07:06:29;;;;;;;23.37;13.87;;;5.00;93.50;;;;;;5094745;28;20441;-72
2022/12/03 07:08:56;;;;;;;24.33;13.80;;;5.00;93.40;;;;;;5094491;28;20451;-72
2022/12/03 07:11:38;;;;;;;19.40;12.83;;;5.00;93.40;;;;;;5094592;28;21022;-72
2022/12/03 07:14:06;;;;;;;21.57;13.67;;;5.00;93.40;;;;;;5095071;28;20465;-72
2022/12/03 07:16:34;;;;;;;21.07;13.23;;;5.00;93.40;;;;;;5094893;28;20448;-72
2022/12/03 07:19:00;;;;;;;20.57;12.80;;;5.00;93.50;;;;;;5095269;28;20750;-72
2022/12/03 07:21:27;;;;;;;20.03;12.73;;;5.00;93.40;;;;;;5094650;28;20438;-72
2022/12/03 07:23:55;;;;;;;21.03;13.17;;;5.00;93.50;;;;;;5095116;28;20478;-72
2022/12/03 07:26:22;;;;;;;25.27;13.90;;;4.90;93.50;;;;;;5094741;28;20432;-72
2022/12/03 07:28:50;;;;;;;22.13;12.77;;;4.90;93.60;;;;;;5094173;28;20440;-72
2022/12/03 07:31:17;;;;;;;25.20;13.37;;;4.90;93.50;;;;;;5094659;28;20472;-72
2022/12/03 07:33:43;;;;;;;23.53;13.90;;;4.90;93.50;;;;;;5094362;28;20475;-72
2022/12/03 07:36:10;;;;;;;24.27;14.23;;;4.90;93.50;;;;;;5094156;28;20810;-72
2022/12/03 07:38:37;;;;;;;26.20;13.97;;;4.90;93.60;;;;;;5094127;28;20466;-71
2022/12/03 07:41:04;;;;;;;26.13;13.53;;;4.90;93.60;;;;;;5094197;28;20806;-71
2022/12/03 07:43:31;;;;;;;23.33;15.07;;;4.90;93.40;;;;;;5094924;28;20473;-71
2022/12/03 07:45:59;;;;;;;26.23;14.07;;;4.90;93.40;;;;;;5094737;28;20824;-71
2022/12/03 07:48:26;;;;;;;20.53;13.93;;;4.90;93.40;;;;;;5095643;28;20797;-72
2022/12/03 07:50:52;;;;;;;24.90;14.20;;;4.90;93.40;;;;;;5094781;28;20454;-72
2022/12/03 07:53:22;;;;;;;22.43;13.43;;;4.90;93.30;;;;;;5095141;28;20492;-72
2022/12/03 07:55:49;;;;;;;24.57;15.30;;;4.90;93.40;;;;;;5113070;28;20447;-72
2022/12/03 07:58:16;;;;;;;21.70;13.47;;;5.00;93.40;;;;;;5113827;28;20501;-72
2022/12/03 08:00:43;;;;;;;21.97;14.90;;;5.00;93.50;;;;;;5113389;28;20508;-73
2022/12/03 08:03:11;;;;;;;20.87;13.47;;;5.00;93.30;;;;;;5113093;28;20462;-72
2022/12/03 08:05:37;;;;;;;25.97;14.23;;;4.90;93.30;;;;;;5111032;28;20444;-73
2022/12/03 08:08:04;;;;;;;23.23;15.10;;;4.90;93.30;;;;;;5110222;28;20426;-72
2022/12/03 08:10:31;;;;;;;22.97;12.47;;;4.90;93.30;;;;;;5113350;28;20440;-73
2022/12/03 08:12:59;;;;;;;22.17;12.40;;;5.00;93.40;;;;;;5113014;28;20497;-72
2022/12/03 08:15:28;;;;;;;26.80;14.87;;;5.00;93.20;;;;;;5110507;28;20442;-72
2022/12/03 08:17:57;;;;;;;22.23;15.10;;;5.00;93.10;;;;;;5111084;28;20525;-72
2022/12/03 08:20:28;;;;;;;20.57;12.70;;;5.00;93.00;;;;;;5110936;28;20806;-72
2022/12/03 08:22:56;;;;;;;24.57;14.63;;;5.10;92.90;;;;;;5103877;28;20475;-71
2022/12/03 08:25:24;;;;;;;20.57;12.30;;;5.10;92.90;;;;;;5051584;22;20519;-75
2022/12/03 08:28:42;;;;;;;22.90;13.03;;;5.10;92.80;;;;;;5014508;28;20446;-75
2022/12/03 08:31:58;;;;;;;22.97;13.80;;;5.20;92.90;;;;;;5013973;28;20428;-77
2022/12/03 08:34:28;;;;;;;26.47;13.97;;;5.20;92.90;;;;;;5013662;28;20474;-75
2022/12/03 08:37:01;;;;;;;25.17;13.73;;;5.10;92.80;;;;;;5013265;28;20450;-75
2022/12/03 08:39:32;;;;;;;20.47;13.17;;;5.20;92.90;;;;;;5013537;28;20435;-75
2022/12/03 08:44:53;;;;;;;26.20;14.23;;;5.30;92.90;;;;;;5013612;28;20469;-75
2022/12/03 08:47:22;;;;;;;23.47;13.80;;;5.30;92.80;;;;;;5015510;28;21032;-75
2022/12/03 08:49:54;;;;;;;22.97;13.47;;;5.40;92.70;;;;;;5016804;28;20885;-77
2022/12/03 08:52:28;;;;;;;24.00;14.37;;;5.40;92.60;;;;;;5016883;28;20475;-75
2022/12/03 08:54:56;;;;;;;24.97;13.80;;;5.40;92.40;;;;;;5017139;28;20532;-75
2022/12/03 08:57:28;;;;;;;23.97;13.50;;;5.50;92.30;;;;;;5018489;28;20460;-75
2022/12/03 08:59:58;;;;;;;22.50;13.93;;;5.50;92.10;;;;;;5018085;28;20442;-76
2022/12/03 09:02:31;;;;;;;28.90;15.20;;;5.40;92.10;;;;;;5018618;28;20437;-76
2022/12/03 09:04:59;;;;;;;23.83;14.67;;;5.40;92.00;;;;;;5018213;28;20474;-76
2022/12/03 09:07:27;;;;;;;24.07;13.90;;;5.40;91.90;;;;;;5017201;28;20457;-76
2022/12/03 09:09:53;;;;;;;26.17;13.87;;;5.50;92.00;;;;;;5017061;28;20983;-75
2022/12/03 09:12:20;;;;;;;22.40;13.60;;;5.50;91.90;;;;;;5017550;28;20471;-76
2022/12/03 09:14:47;;;;;;;20.30;13.03;;;5.50;91.80;;;;;;5017650;28;20477;-76
2022/12/03 09:17:13;;;;;;;24.50;14.13;;;5.60;91.80;;;;;;5017124;28;20436;-76
2022/12/03 09:19:43;;;;;;;26.80;14.97;;;5.70;91.70;;;;;;5017614;28;20455;-75
2022/12/03 09:22:10;;;;;;;23.87;14.80;;;5.70;91.70;;;;;;5016688;28;20429;-76
2022/12/03 09:24:39;;;;;;;26.67;15.00;;;5.80;91.70;;;;;;5016536;28;20484;-76
2022/12/03 09:27:06;;;;;;;22.47;13.80;;;5.80;91.50;;;;;;5016066;28;20465;-76
2022/12/03 09:29:33;;;;;;;22.03;13.23;;;5.90;91.40;;;;;;5016476;28;20535;-76
2022/12/03 09:31:59;;;;;;;22.57;14.17;;;6.00;91.30;;;;;;5017143;28;20481;-76
2022/12/03 09:34:26;;;;;;;26.77;14.73;;;6.00;91.20;;;;;;5016684;28;20474;-76
2022/12/03 09:36:53;;;;;;;22.97;13.63;;;6.00;91.10;;;;;;5017185;28;20808;-77
2022/12/03 09:39:20;;;;;;;21.03;13.50;;;6.00;91.00;;;;;;5016201;28;20831;-76
2022/12/03 09:41:48;;;;;;;21.10;13.37;;;6.10;90.90;;;;;;5017082;28;20507;-76
2022/12/03 09:44:18;;;;;;;24.20;14.80;;;6.10;90.90;;;;;;5016811;28;20483;-76
2022/12/03 09:46:47;;;;;;;22.00;13.90;;;6.20;90.80;;;;;;5016260;28;20947;-76
2022/12/03 09:49:18;;;;;;;23.00;13.67;;;6.30;90.80;;;;;;5016186;28;20466;-77
2022/12/03 09:51:45;;;;;;;21.80;13.00;;;6.30;90.70;;;;;;5015566;28;20444;-76
2022/12/03 09:54:22;;;;;;;25.27;14.47;;;6.30;90.40;;;;;;5015545;28;20467;-78
2022/12/03 09:56:50;;;;;;;21.80;13.37;;;6.30;90.30;;;;;;5015255;28;20919;-76
2022/12/03 09:59:17;;;;;;;17.50;12.70;;;6.40;90.30;;;;;;5015091;28;20951;-76
2022/12/03 10:01:44;;;;;;;21.43;13.47;;;6.50;90.20;;;;;;5015518;28;20447;-75
2022/12/03 10:04:11;;;;;;;18.47;12.47;;;6.50;90.00;;;;;;5015529;28;20471;-77
2022/12/03 10:06:39;;;;;;;21.30;12.70;;;6.60;89.90;;;;;;5015622;28;20906;-76
2022/12/03 10:09:06;;;;;;;20.60;14.20;;;6.60;89.60;;;;;;5015334;28;20439;-76
2022/12/03 10:11:35;;;;;;;20.23;13.07;;;6.60;89.20;;;;;;5015216;28;20442;-76
2022/12/03 10:14:04;;;;;;;21.33;13.00;;;6.70;89.60;;;;;;5015570;28;20499;-76
2022/12/03 10:16:32;;;;;;;19.00;12.50;;;6.70;88.30;;;;;;5015403;28;20462;-76
2022/12/03 10:19:00;;;;;;;20.07;12.70;;;6.70;88.50;;;;;;5015416;28;20462;-76
2022/12/03 10:21:32;;;;;;;20.07;13.43;;;6.70;88.40;;;;;;5015267;28;20438;-76
2022/12/03 10:24:19;;;;;;;20.27;13.10;;;6.80;88.40;;;;;;5015698;28;20473;-76
2022/12/03 10:26:47;;;;;;;21.20;13.33;;;6.80;88.10;;;;;;5014656;28;20836;-77
2022/12/03 10:29:18;;;;;;;20.00;13.40;;;6.80;87.70;;;;;;5014652;28;20951;-77
2022/12/03 10:31:45;;;;;;;20.33;13.70;;;6.80;87.30;;;;;;5015042;28;20444;-77
2022/12/03 10:34:12;;;;;;;19.60;12.20;;;6.80;87.50;;;;;;5014831;28;20501;-76
2022/12/03 10:36:39;;;;;;;18.60;12.40;;;6.80;87.60;;;;;;5014479;28;20970;-77
2022/12/03 10:39:09;;;;;;;22.23;14.17;;;6.80;87.60;;;;;;5015029;28;20460;-76
2022/12/03 10:41:37;;;;;;;21.07;14.30;;;6.90;87.20;;;;;;5014750;28;20452;-77
2022/12/03 10:44:16;;;;;;;16.63;11.83;;;6.90;86.50;;;;;;5015276;28;20463;-79
2022/12/03 10:46:43;;;;;;;22.30;12.87;;;6.90;87.00;;;;;;5015420;28;20441;-76
2022/12/03 10:49:15;;;;;;;21.00;13.50;;;6.90;87.20;;;;;;5015206;28;20446;-77
2022/12/03 10:51:43;;;;;;;17.53;11.93;;;6.90;86.90;;;;;;5014965;28;20501;-77
2022/12/03 10:54:16;;;;;;;23.37;13.20;;;6.80;86.70;;;;;;5014392;28;20483;-77
2022/12/03 10:56:43;;;;;;;20.00;12.37;;;6.90;86.90;;;;;;5014707;28;20478;-77
2022/12/03 10:59:14;;;;;;;20.20;13.17;;;7.00;87.00;;;;;;5014336;28;20985;-77
2022/12/03 11:01:42;;;;;;;16.20;10.73;;;7.00;87.90;;;;;;5014402;28;20439;-77
2022/12/03 11:04:18;;;;;;;19.57;13.23;;;7.00;87.00;;;;;;5014247;28;21009;-77
2022/12/03 11:06:44;;;;;;;19.33;12.40;;;7.10;86.80;;;;;;5014684;28;20443;-77
2022/12/03 11:09:16;;;;;;;19.10;12.17;;;7.10;86.50;;;;;;5014140;28;20436;-77
2022/12/03 11:11:43;;;;;;;20.80;13.03;;;7.20;85.70;;;;;;5014474;28;20455;-77
2022/12/03 11:14:10;;;;;;;18.70;12.80;;;7.20;85.70;;;;;;5013830;28;20487;-77
2022/12/03 11:17:11;;;;;;;17.50;12.33;;;7.20;85.90;;;;;;5014213;28;20796;-77
2022/12/03 11:19:49;;;;;;;18.03;11.70;;;7.20;85.40;;;;;;5014256;28;20841;-77
2022/12/03 11:22:39;;;;;;;20.97;11.90;;;7.20;85.20;;;;;;5014218;28;20482;-77
2022/12/03 11:25:49;;;;;;;19.30;12.87;;;7.30;85.30;;;;;;5013718;28;20486;-77
2022/12/03 11:28:55;;;;;;;18.10;12.40;;;7.40;85.10;;;;;;5014617;28;20481;-79
2022/12/03 11:31:40;;;;;;;15.93;11.70;;;7.40;84.60;;;;;;4973082;28;20448;-77
2022/12/03 11:34:46;;;;;;;17.73;11.70;;;7.40;84.40;;;;;;4972388;28;20490;-76
2022/12/03 11:37:24;;;;;;;20.00;11.90;;;7.30;85.50;;;;;;5008593;28;20807;-77
2022/12/03 11:40:03;;;;;;;20.10;12.87;;;7.40;87.80;;;;;;5014019;28;20437;-76
2022/12/03 11:42:38;;;;;;;19.97;12.30;;;7.50;88.00;;;;;;5013850;28;20427;-77
2022/12/03 11:45:18;;;;;;;17.40;12.37;;;7.60;86.60;;;;;;5013743;28;20486;-77
2022/12/03 11:47:59;;;;;;;16.70;11.30;;;7.60;85.00;;;;;;5013921;28;20440;-77
2022/12/03 11:50:30;;;;;;;18.93;13.10;;;7.70;84.30;;;;;;5013857;28;20439;-76
2022/12/03 11:53:00;;;;;;;19.30;11.40;;;7.70;83.90;;;;;;5013685;28;20817;-77
2022/12/03 11:55:30;;;;;;;18.70;12.70;;;7.80;83.60;;;;;;5013522;28;20428;-76
2022/12/03 11:57:59;;;;;;;20.30;13.47;;;7.80;83.00;;;;;;5013812;28;20452;-77
2022/12/03 12:00:26;;;;;;;16.70;12.10;;;7.80;82.80;;;;;;5013442;28;20959;-77
2022/12/03 12:02:55;;;;;;;20.83;13.17;;;7.80;82.50;;;;;;5013801;28;20838;-77
2022/12/03 12:05:26;;;;;;;21.80;12.90;;;7.80;82.50;;;;;;5014492;28;20554;-77
2022/12/03 12:07:54;;;;;;;18.97;13.27;;;7.80;82.40;;;;;;5014464;28;20511;-76
2022/12/03 12:10:46;;;;;;;16.77;11.87;;;7.80;82.30;;;;;;5013843;28;20456;-77
2022/12/03 12:13:50;;;;;;;16.83;12.10;;;7.80;82.30;;;;;;5013456;28;20826;-76
2022/12/03 12:16:36;;;;;;;15.67;11.13;;;7.80;82.50;;;;;;5013790;28;20772;-77
2022/12/03 12:19:34;;;;;;;19.83;13.13;;;7.80;82.60;;;;;;5013825;28;20436;-76
2022/12/03 12:22:29;;;;;;;19.10;13.20;;;7.70;82.40;;;;;;5016177;28;20439;-77
2022/12/03 12:24:57;;;;;;;17.27;12.10;;;7.70;82.90;;;;;;5017773;28;20547;-76
2022/12/03 12:27:32;;;;;;;20.40;13.67;;;7.60;82.80;;;;;;5017375;28;20446;-76
2022/12/03 12:30:01;;;;;;;19.30;12.63;;;7.60;82.90;;;;;;5017498;28;20430;-77
2022/12/03 12:32:29;;;;;;;19.63;13.07;;;7.60;83.10;;;;;;5017150;28;20437;-77
2022/12/03 12:35:00;;;;;;;16.50;11.80;;;7.60;83.10;;;;;;5017162;28;20475;-76
2022/12/03 12:37:32;;;;;;;20.70;12.97;;;7.60;83.60;;;;;;5017172;28;20442;-76
2022/12/03 12:40:01;;;;;;;19.30;12.93;;;7.60;83.10;;;;;;5016723;28;20904;-76
2022/12/03 12:42:32;;;;;;;18.90;13.37;;;7.60;83.00;;;;;;5017038;28;20455;-77
2022/12/03 12:45:14;;;;;;;18.03;12.77;;;7.60;83.10;;;;;;5016965;28;20468;-77
2022/12/03 12:47:47;;;;;;;15.80;12.17;;;7.60;83.20;;;;;;5016996;28;20449;-76
2022/12/03 12:50:15;;;;;;;18.83;13.20;;;7.50;83.20;;;;;;5019182;28;20441;-77
2022/12/03 12:52:52;;;;;;;18.40;12.57;;;7.50;83.30;;;;;;5019308;28;20463;-77
2022/12/03 12:55:20;;;;;;;19.63;13.20;;;7.50;83.50;;;;;;5018527;28;20826;-76
2022/12/03 12:57:48;;;;;;;18.00;13.53;;;7.50;83.70;;;;;;5017998;28;20432;-76
2022/12/03 13:00:17;;;;;;;16.93;11.70;;;7.40;83.60;;;;;;5017013;28;20444;-76
2022/12/03 13:02:47;;;;;;;15.83;11.50;;;7.50;83.90;;;;;;5018296;28;20871;-77
2022/12/03 13:05:14;;;;;;;19.50;12.47;;;7.50;84.00;;;;;;5017038;28;20471;-77
2022/12/03 13:07:42;;;;;;;18.80;12.00;;;7.50;84.00;;;;;;5017354;28;20447;-77
2022/12/03 13:10:38;;;;;;;21.70;13.87;;;7.50;83.90;;;;;;5017759;28;20504;-77